createdAt,value
2018-05-12T00:00:04.464Z,67.59
2018-05-12T00:02:32.047Z,67.51
2018-05-12T00:04:59.799Z,67.21
2018-05-12T00:07:27.371Z,67.01
2018-05-12T00:09:54.947Z,67.25
2018-05-12T00:12:22.700Z,67.29
2018-05-12T00:14:50.296Z,67.33
2018-05-12T00:17:17.873Z,67.52
2018-05-12T00:19:45.495Z,67.14
2018-05-12T00:22:13.063Z,67.09
2018-05-12T00:24:40.631Z,67.24
2018-05-12T00:27:08.264Z,67.88
2018-05-12T00:29:35.895Z,67.98
2018-05-12T00:32:03.485Z,69.75
2018-05-12T00:34:31.211Z,70.29
2018-05-12T00:36:58.974Z,71.10
2018-05-12T00:39:26.543Z,71.46
2018-05-12T00:41:54.188Z,72.24
2018-05-12T00:44:21.780Z,72.46
2018-05-12T00:46:49.383Z,72.94
2018-05-12T00:49:17.022Z,73.51
2018-05-12T00:51:44.635Z,73.51
2018-05-12T00:54:12.218Z,73.77
2018-05-12T00:56:39.979Z,74.15
2018-05-12T00:59:07.554Z,74.13
2018-05-12T01:01:35.175Z,74.08
2018-05-12T01:04:02.832Z,74.50
2018-05-12T01:06:30.421Z,74.94
2018-05-12T01:08:57.995Z,75.43
2018-05-12T01:11:25.740Z,76.04
2018-05-12T01:13:53.360Z,76.38
2018-05-12T01:16:20.952Z,76.96
2018-05-12T01:18:48.593Z,76.79
2018-05-12T01:21:16.196Z,77.10
2018-05-12T01:23:43.765Z,77.05
2018-05-12T01:26:11.403Z,77.12
2018-05-12T01:28:39.435Z,77.50
2018-05-12T01:31:07.089Z,77.28
2018-05-12T01:33:36.854Z,77.25
2018-05-12T01:36:04.491Z,77.22
2018-05-12T01:38:32.085Z,77.51
2018-05-12T01:41:00.688Z,77.71
2018-05-12T01:43:28.872Z,78.00
2018-05-12T01:45:56.434Z,77.69
2018-05-12T01:48:24.162Z,78.00
2018-05-12T01:50:51.740Z,77.91
2018-05-12T01:53:19.308Z,77.95
2018-05-12T01:55:46.954Z,78.25
2018-05-12T01:58:14.552Z,78.07
2018-05-12T02:00:42.132Z,77.57
2018-05-12T02:03:09.883Z,77.86
2018-05-12T02:05:37.471Z,77.60
2018-05-12T02:08:05.056Z,77.80
2018-05-12T02:10:32.704Z,77.52
2018-05-12T02:13:00.288Z,77.46
2018-05-12T02:15:27.895Z,77.87
2018-05-12T02:17:55.631Z,77.64
2018-05-12T02:20:23.195Z,78.22
2018-05-12T02:22:50.763Z,78.38
2018-05-12T02:25:18.489Z,77.95
2018-05-12T02:27:46.093Z,77.86
2018-05-12T02:30:13.680Z,78.37
2018-05-12T02:32:41.313Z,78.50
2018-05-12T02:35:08.898Z,78.33
2018-05-12T02:37:36.526Z,78.56
2018-05-12T02:40:04.300Z,78.26
2018-05-12T02:42:31.899Z,78.19
2018-05-12T02:44:59.486Z,77.99
2018-05-12T02:47:27.146Z,78.03
2018-05-12T02:49:54.715Z,77.84
2018-05-12T02:52:22.296Z,78.35
2018-05-12T02:54:49.935Z,78.32
2018-05-12T02:57:17.512Z,78.59
2018-05-12T02:59:45.096Z,78.42
2018-05-12T03:02:12.733Z,78.48
2018-05-12T03:04:40.333Z,78.42
2018-05-12T03:07:07.925Z,78.27
2018-05-12T03:09:35.663Z,77.88
2018-05-12T03:12:03.267Z,78.08
2018-05-12T03:14:30.871Z,78.30
2018-05-12T03:16:58.611Z,78.20
2018-05-12T03:19:26.182Z,78.58
2018-05-12T03:21:53.786Z,78.17
2018-05-12T03:24:21.548Z,77.92
2018-05-12T03:26:49.149Z,77.23
2018-05-12T03:29:16.767Z,77.73
2018-05-12T03:31:44.413Z,78.23
2018-05-12T03:34:12.029Z,78.48
2018-05-12T03:36:39.605Z,78.46
2018-05-12T03:39:07.853Z,78.41
2018-05-12T03:41:35.438Z,77.40
2018-05-12T03:44:03.074Z,78.10
2018-05-12T03:46:30.698Z,78.49
2018-05-12T03:48:58.800Z,78.32
2018-05-12T03:51:26.384Z,78.17
2018-05-12T03:53:54.031Z,78.63
2018-05-12T03:56:21.613Z,78.59
2018-05-12T03:58:49.203Z,78.33
2018-05-12T04:01:16.991Z,78.23
2018-05-12T04:03:44.573Z,78.47
2018-05-12T04:06:26.211Z,77.94
2018-05-12T04:09:05.886Z,77.70
2018-05-12T04:11:45.366Z,77.70
2018-05-12T04:14:12.980Z,77.98
2018-05-12T04:16:40.586Z,78.00
2018-05-12T04:19:08.219Z,77.45
2018-05-12T04:21:35.833Z,76.46
2018-05-12T04:24:03.438Z,75.72
2018-05-12T04:26:31.114Z,75.90
2018-05-12T04:28:58.695Z,72.70
2018-05-12T04:31:26.290Z,74.64
2018-05-12T04:33:53.961Z,70.56
2018-05-12T04:36:21.568Z,72.33
2018-05-12T04:38:49.162Z,72.07
2018-05-12T04:41:16.814Z,70.70
2018-05-12T04:43:44.406Z,70.93
2018-05-12T04:46:11.996Z,69.24
2018-05-12T04:48:39.649Z,68.00
2018-05-12T04:51:07.270Z,66.37
2018-05-12T04:53:34.855Z,66.78
2018-05-12T04:56:02.483Z,66.03
2018-05-12T04:58:30.106Z,64.24
2018-05-12T05:00:57.670Z,62.37
2018-05-12T05:03:26.676Z,62.45
2018-05-12T05:05:54.267Z,60.96
2018-05-12T05:08:21.858Z,61.84
2018-05-12T05:10:49.484Z,62.94
2018-05-12T05:13:17.048Z,62.60
2018-05-12T05:15:44.656Z,61.36
2018-05-12T05:18:12.434Z,62.11
2018-05-12T05:20:39.998Z,60.30
2018-05-12T05:23:07.575Z,58.05
2018-05-12T05:25:35.242Z,57.86
2018-05-12T05:28:02.817Z,58.17
2018-05-12T05:30:30.429Z,59.33
2018-05-12T05:32:58.063Z,60.26
2018-05-12T05:35:25.648Z,60.43
2018-05-12T05:37:53.244Z,60.49
2018-05-12T05:40:20.994Z,60.18
2018-05-12T05:42:48.637Z,60.49
2018-05-12T05:45:16.257Z,57.51
2018-05-12T05:47:43.988Z,57.77
2018-05-12T05:50:11.591Z,59.07
2018-05-12T05:52:39.189Z,57.99
2018-05-12T05:55:06.798Z,55.68
2018-05-12T05:57:34.394Z,58.46
2018-05-12T06:00:02.011Z,58.00
2018-05-12T06:02:29.665Z,56.58
2018-05-12T06:04:57.274Z,54.72
2018-05-12T06:07:24.847Z,57.44
2018-05-12T06:09:52.556Z,58.94
2018-05-12T06:12:20.154Z,53.81
2018-05-12T06:14:47.731Z,54.94
2018-05-12T06:17:15.451Z,55.55
2018-05-12T06:19:43.053Z,56.39
2018-05-12T06:22:11.366Z,55.55
2018-05-12T06:24:39.036Z,54.33
2018-05-12T06:27:06.605Z,56.29
2018-05-12T06:29:34.196Z,50.39
2018-05-12T06:32:01.848Z,54.53
2018-05-12T06:34:29.434Z,52.68
2018-05-12T06:36:57.047Z,55.22
2018-05-12T06:39:24.726Z,56.75
2018-05-12T06:41:52.318Z,57.83
2018-05-12T06:44:19.909Z,54.72
2018-05-12T06:46:47.645Z,56.69
2018-05-12T06:49:15.252Z,55.27
2018-05-12T06:51:43.764Z,54.94
2018-05-12T06:54:11.392Z,57.06
2018-05-12T06:56:38.978Z,54.89
2018-05-12T06:59:06.593Z,60.41
2018-05-12T07:01:34.227Z,55.70
2018-05-12T07:04:01.815Z,52.74
2018-05-12T07:06:29.406Z,54.19
2018-05-12T07:08:57.047Z,50.83
2018-05-12T07:11:24.695Z,54.00
2018-05-12T07:13:52.276Z,54.94
2018-05-12T07:16:20.029Z,56.85
2018-05-12T07:18:47.665Z,53.58
2018-05-12T07:21:16.076Z,54.32
2018-05-12T07:23:43.774Z,57.63
2018-05-12T07:26:11.376Z,53.64
2018-05-12T07:28:38.992Z,50.43
2018-05-12T07:31:06.801Z,49.99
2018-05-12T07:33:34.404Z,50.09
2018-05-12T07:36:02.064Z,47.74
2018-05-12T07:38:30.231Z,47.00
2018-05-12T07:40:57.811Z,51.41
2018-05-12T07:43:25.457Z,47.54
2018-05-12T07:45:53.120Z,45.72
2018-05-12T07:48:20.779Z,51.17
2018-05-12T07:50:48.396Z,51.76
2018-05-12T07:53:16.097Z,51.25
2018-05-12T07:55:43.745Z,47.63
2018-05-12T07:58:11.377Z,45.64
2018-05-12T08:00:39.032Z,48.50
2018-05-12T08:03:06.612Z,43.48
2018-05-12T08:05:34.188Z,49.73
2018-05-12T08:08:01.976Z,46.55
2018-05-12T08:10:29.600Z,46.23
2018-05-12T08:12:57.177Z,44.77
2018-05-12T08:15:25.692Z,43.15
2018-05-12T08:17:53.328Z,42.86
2018-05-12T08:20:20.968Z,42.34
2018-05-12T08:22:48.692Z,42.65
2018-05-12T08:25:16.279Z,41.58
2018-05-12T08:27:43.957Z,41.55
2018-05-12T08:30:11.596Z,44.01
2018-05-12T08:32:39.179Z,44.57
2018-05-12T08:35:06.782Z,45.26
2018-05-12T08:37:34.550Z,43.59
2018-05-12T08:40:02.180Z,47.96
2018-05-12T08:42:29.757Z,46.12
2018-05-12T08:44:57.471Z,45.35
2018-05-12T08:47:25.079Z,48.62
2018-05-12T08:49:52.678Z,45.18
2018-05-12T08:52:20.379Z,47.88
2018-05-12T08:54:48.019Z,48.56
2018-05-12T08:57:15.652Z,43.79
2018-05-12T08:59:43.316Z,42.23
2018-05-12T09:02:10.940Z,49.15
2018-05-12T09:04:38.531Z,44.33
2018-05-12T09:07:06.205Z,46.37
2018-05-12T09:09:33.841Z,42.73
2018-05-12T09:12:01.483Z,45.78
2018-05-12T09:14:29.208Z,44.12
2018-05-12T09:16:56.792Z,44.83
2018-05-12T09:19:24.586Z,44.88
2018-05-12T09:21:52.920Z,44.78
2018-05-12T09:24:20.567Z,40.85
2018-05-12T09:26:48.151Z,40.98
2018-05-12T09:29:15.836Z,40.40
2018-05-12T09:31:43.420Z,39.95
2018-05-12T09:34:10.994Z,40.77
2018-05-12T09:36:38.628Z,43.56
2018-05-12T09:39:07.116Z,42.31
2018-05-12T09:41:34.777Z,41.96
2018-05-12T09:44:02.611Z,43.58
2018-05-12T09:46:30.176Z,42.73
2018-05-12T09:48:57.891Z,43.94
2018-05-12T09:51:25.532Z,39.03
2018-05-12T09:53:53.119Z,41.89
2018-05-12T09:56:20.764Z,39.25
2018-05-12T09:58:48.395Z,37.21
2018-05-12T10:01:15.982Z,38.00
2018-05-12T10:03:43.585Z,36.48
2018-05-12T10:06:11.317Z,37.23
2018-05-12T10:08:38.908Z,37.49
2018-05-12T10:11:06.503Z,42.92
2018-05-12T10:13:34.131Z,36.75
2018-05-12T10:16:01.773Z,36.79
2018-05-12T10:18:29.349Z,37.98
2018-05-12T10:20:56.980Z,41.62
2018-05-12T10:23:24.643Z,35.86
2018-05-12T10:25:52.477Z,39.67
2018-05-12T10:28:20.398Z,42.25
2018-05-12T10:30:48.253Z,42.27
2018-05-12T10:33:16.103Z,43.85
2018-05-12T10:35:43.975Z,38.29
2018-05-12T10:38:11.834Z,39.92
2018-05-12T10:40:39.664Z,38.42
2018-05-12T10:43:07.655Z,38.55
2018-05-12T10:45:35.515Z,36.94
2018-05-12T10:48:03.363Z,41.00
2018-05-12T10:50:34.296Z,39.83
2018-05-12T10:53:02.142Z,36.59
2018-05-12T10:55:29.719Z,37.19
2018-05-12T10:57:57.459Z,42.00
2018-05-12T11:00:25.084Z,34.61
2018-05-12T11:02:52.655Z,41.03
2018-05-12T11:05:20.369Z,37.38
2018-05-12T11:07:47.973Z,39.83
2018-05-12T11:10:15.559Z,38.38
2018-05-12T11:12:45.278Z,37.91
2018-05-12T11:15:12.856Z,36.85
2018-05-12T11:17:40.429Z,35.12
2018-05-12T11:20:08.126Z,32.24
2018-05-12T11:22:35.677Z,34.07
2018-05-12T11:25:03.318Z,37.80
2018-05-12T11:27:31.049Z,35.13
2018-05-12T11:29:58.627Z,36.22
2018-05-12T11:32:26.197Z,40.02
2018-05-12T11:34:53.859Z,38.23
2018-05-12T11:37:21.428Z,38.62
2018-05-12T11:39:49.008Z,33.96
2018-05-12T11:42:17.035Z,38.07
2018-05-12T11:44:44.696Z,39.42
2018-05-12T11:47:12.236Z,35.91
2018-05-12T11:49:39.871Z,37.00
2018-05-12T11:52:07.468Z,35.75
2018-05-12T11:54:35.072Z,34.83
2018-05-12T11:57:02.728Z,34.22
2018-05-12T11:59:30.302Z,35.99
2018-05-12T12:01:57.909Z,34.42
2018-05-12T12:04:25.529Z,35.00
2018-05-12T12:06:53.145Z,35.32
2018-05-12T12:09:20.718Z,32.81
2018-05-12T12:11:48.362Z,33.73
2018-05-12T12:14:15.918Z,30.19
2018-05-12T12:16:43.554Z,34.05
2018-05-12T12:19:11.274Z,33.65
2018-05-12T12:21:38.873Z,36.71
2018-05-12T12:24:06.491Z,33.67
2018-05-12T12:26:34.104Z,35.20
2018-05-12T12:29:01.669Z,35.91
2018-05-12T12:31:29.237Z,34.99
2018-05-12T12:33:56.844Z,35.36
2018-05-12T12:36:24.424Z,34.50
2018-05-12T12:38:52.057Z,35.14
2018-05-12T12:41:19.913Z,36.57
2018-05-12T12:43:47.484Z,34.72
2018-05-12T12:46:15.313Z,36.26
2018-05-12T12:48:42.963Z,34.84
2018-05-12T12:51:10.649Z,34.73
2018-05-12T12:53:39.244Z,35.56
2018-05-12T12:56:06.979Z,37.43
2018-05-12T12:58:34.570Z,39.20
2018-05-12T13:01:02.154Z,34.19
2018-05-12T13:03:29.801Z,34.28
2018-05-12T13:05:57.422Z,38.52
2018-05-12T13:08:25.033Z,35.16
2018-05-12T13:10:52.681Z,34.50
2018-05-12T13:13:20.278Z,35.42
2018-05-12T13:15:47.906Z,37.06
2018-05-12T13:18:15.537Z,37.00
2018-05-12T13:20:43.147Z,36.30
2018-05-12T13:23:10.732Z,36.34
2018-05-12T13:25:38.342Z,36.13
2018-05-12T13:28:05.940Z,36.12
2018-05-12T13:30:33.524Z,38.34
2018-05-12T13:33:01.233Z,37.57
2018-05-12T13:35:28.818Z,35.32
2018-05-12T13:37:56.436Z,37.13
2018-05-12T13:40:24.263Z,38.78
2018-05-12T13:42:51.896Z,38.46
2018-05-12T13:45:19.469Z,37.93
2018-05-12T13:47:47.100Z,38.32
2018-05-12T13:50:14.697Z,38.63
2018-05-12T13:52:42.275Z,38.13
2018-05-12T13:55:09.981Z,39.07
2018-05-12T13:57:37.592Z,38.55
2018-05-12T14:00:05.251Z,37.47
2018-05-12T14:02:32.879Z,36.91
2018-05-12T14:05:00.478Z,38.91
2018-05-12T14:07:28.070Z,37.46
2018-05-12T14:09:55.815Z,36.44
2018-05-12T14:12:23.386Z,39.56
2018-05-12T14:14:50.971Z,36.76
2018-05-12T14:17:18.769Z,37.88
2018-05-12T14:19:46.387Z,40.87
2018-05-12T14:22:13.980Z,38.29
2018-05-12T14:24:41.618Z,38.62
2018-05-12T14:27:11.956Z,39.81
2018-05-12T14:29:39.547Z,40.25
2018-05-12T14:32:07.303Z,38.23
2018-05-12T14:34:34.881Z,37.93
2018-05-12T14:37:02.472Z,39.90
2018-05-12T14:39:30.134Z,38.96
2018-05-12T14:41:57.738Z,38.33
2018-05-12T14:44:25.319Z,39.69
2018-05-12T14:46:52.972Z,37.64
2018-05-12T14:49:20.580Z,38.97
2018-05-12T14:51:48.187Z,41.58
2018-05-12T14:54:15.912Z,39.88
2018-05-12T14:56:43.547Z,40.29
2018-05-12T14:59:11.159Z,40.58
2018-05-12T15:01:38.795Z,36.96
2018-05-12T15:04:06.384Z,40.63
2018-05-12T15:06:33.985Z,39.88
2018-05-12T15:09:01.612Z,40.33
2018-05-12T15:11:29.223Z,41.02
2018-05-12T15:13:56.828Z,41.65
2018-05-12T15:16:24.580Z,39.37
2018-05-12T15:18:52.149Z,40.52
2018-05-12T15:21:19.751Z,38.61
2018-05-12T15:23:47.394Z,41.36
2018-05-12T15:26:15.004Z,40.79
2018-05-12T15:28:42.574Z,39.63
2018-05-12T15:31:10.194Z,39.41
2018-05-12T15:33:37.779Z,38.86
2018-05-12T15:36:05.392Z,40.95
2018-05-12T15:38:33.026Z,39.32
2018-05-12T15:41:00.611Z,39.74
2018-05-12T15:43:28.195Z,40.12
2018-05-12T15:45:55.836Z,38.82
2018-05-12T15:48:23.423Z,38.92
2018-05-12T15:50:51.031Z,40.69
2018-05-12T15:53:18.779Z,39.83
2018-05-12T15:55:46.368Z,40.39
2018-05-12T15:58:13.999Z,39.86
2018-05-12T16:00:41.775Z,41.17
2018-05-12T16:03:09.450Z,40.91
2018-05-12T16:05:36.995Z,43.45
2018-05-12T16:08:04.644Z,42.34
2018-05-12T16:10:32.229Z,43.29
2018-05-12T16:12:59.807Z,43.01
2018-05-12T16:15:27.454Z,43.86
2018-05-12T16:17:55.043Z,42.02
2018-05-12T16:20:22.670Z,41.36
2018-05-12T16:22:50.343Z,42.08
2018-05-12T16:25:17.967Z,40.58
2018-05-12T16:27:45.578Z,40.65
2018-05-12T16:30:13.475Z,39.71
2018-05-12T16:32:41.074Z,38.76
2018-05-12T16:35:08.684Z,39.49
2018-05-12T16:37:36.451Z,39.42
2018-05-12T16:40:04.123Z,39.76
2018-05-12T16:42:31.787Z,39.94
2018-05-12T16:44:59.516Z,40.11
2018-05-12T16:47:27.187Z,40.62
2018-05-12T16:49:54.788Z,40.82
2018-05-12T16:52:22.410Z,41.09
2018-05-12T16:54:49.994Z,42.86
2018-05-12T16:57:17.602Z,41.98
2018-05-12T16:59:45.350Z,42.18
2018-05-12T17:02:12.941Z,42.29
2018-05-12T17:04:40.530Z,43.10
2018-05-12T17:07:08.214Z,42.68
2018-05-12T17:09:35.830Z,43.08
2018-05-12T17:12:03.416Z,43.68
2018-05-12T17:14:31.208Z,44.29
2018-05-12T17:16:58.775Z,44.01
2018-05-12T17:19:26.339Z,43.63
2018-05-12T17:21:53.989Z,45.00
2018-05-12T17:24:21.721Z,43.87
2018-05-12T17:26:49.417Z,44.33
2018-05-12T17:29:17.103Z,45.04
2018-05-12T17:31:44.811Z,45.21
2018-05-12T17:34:12.546Z,45.30
2018-05-12T17:36:40.274Z,44.11
2018-05-12T17:39:07.881Z,45.52
2018-05-12T17:41:35.475Z,45.41
2018-05-12T17:44:03.160Z,44.88
2018-05-12T17:46:30.734Z,43.76
2018-05-12T17:48:58.334Z,44.32
2018-05-12T17:51:26.330Z,44.03
2018-05-12T17:53:53.899Z,44.41
2018-05-12T17:56:21.475Z,44.62
2018-05-12T17:58:49.129Z,44.85
2018-05-12T18:01:25.314Z,45.58
2018-05-12T18:03:52.965Z,45.17
2018-05-12T18:06:20.541Z,45.75
2018-05-12T18:08:48.143Z,45.96
2018-05-12T18:11:15.807Z,45.81
2018-05-12T18:13:43.416Z,45.61
2018-05-12T18:16:11.064Z,45.34
2018-05-12T18:18:38.817Z,45.65
2018-05-12T18:21:07.432Z,45.63
2018-05-12T18:23:35.026Z,46.08
2018-05-12T18:26:02.779Z,45.71
2018-05-12T18:28:30.377Z,45.79
2018-05-12T18:30:58.006Z,46.13
2018-05-12T18:33:25.658Z,45.45
2018-05-12T18:35:53.241Z,46.29
2018-05-12T18:38:20.860Z,45.97
2018-05-12T18:40:48.534Z,46.39
2018-05-12T18:43:16.176Z,46.97
2018-05-12T18:45:43.785Z,46.53
2018-05-12T18:48:11.555Z,46.50
2018-05-12T18:50:39.149Z,46.55
2018-05-12T18:53:06.803Z,47.26
2018-05-12T18:55:34.535Z,47.22
2018-05-12T18:58:02.270Z,46.37
2018-05-12T19:00:30.036Z,47.31
2018-05-12T19:02:58.404Z,47.62
2018-05-12T19:05:26.010Z,46.33
2018-05-12T19:07:53.610Z,46.66
2018-05-12T19:10:21.396Z,46.99
2018-05-12T19:12:48.984Z,46.55
2018-05-12T19:15:16.639Z,46.12
2018-05-12T19:17:44.282Z,47.41
2018-05-12T19:20:11.865Z,47.53
2018-05-12T19:22:39.526Z,47.75
2018-05-12T19:25:07.218Z,47.33
2018-05-12T19:27:34.976Z,47.29
2018-05-12T19:30:02.672Z,47.36
2018-05-12T19:32:30.535Z,46.78
2018-05-12T19:34:58.232Z,47.01
2018-05-12T19:37:25.958Z,47.24
2018-05-12T19:39:53.987Z,47.19
2018-05-12T19:42:21.959Z,47.14
2018-05-12T19:44:50.578Z,46.63
2018-05-12T19:47:18.557Z,47.08
2018-05-12T19:49:46.367Z,47.56
2018-05-12T19:52:14.189Z,48.35
2018-05-12T19:54:41.914Z,47.70
2018-05-12T19:57:09.567Z,47.30
2018-05-12T19:59:37.209Z,46.27
2018-05-12T20:02:04.915Z,46.98
2018-05-12T20:04:32.621Z,46.44
2018-05-12T20:07:00.563Z,47.49
2018-05-12T20:09:28.379Z,46.63
2018-05-12T20:11:56.188Z,47.18
2018-05-12T20:14:23.909Z,47.62
2018-05-12T20:16:51.719Z,47.87
2018-05-12T20:19:19.342Z,47.38
2018-05-12T20:21:47.028Z,47.68
2018-05-12T20:24:14.945Z,47.26
2018-05-12T20:26:43.770Z,46.84
2018-05-12T20:29:11.582Z,47.22
2018-05-12T20:31:39.488Z,48.09
2018-05-12T20:34:07.090Z,46.71
2018-05-12T20:36:34.707Z,47.78
2018-05-12T20:39:02.429Z,46.63
2018-05-12T20:41:30.570Z,47.35
2018-05-12T20:43:58.186Z,47.45
2018-05-12T20:46:26.046Z,47.70
2018-05-12T20:48:53.626Z,46.62
2018-05-12T20:51:21.195Z,47.05
2018-05-12T20:53:48.921Z,49.21
2018-05-12T20:56:16.492Z,50.93
2018-05-12T20:58:44.148Z,53.07
2018-05-12T21:01:11.853Z,51.41
2018-05-12T21:03:39.446Z,52.78
2018-05-12T21:06:07.071Z,52.81
2018-05-12T21:08:34.787Z,55.07
2018-05-12T21:11:02.367Z,55.96
2018-05-12T21:13:29.971Z,57.41
2018-05-12T21:15:57.660Z,59.26
2018-05-12T21:18:26.152Z,57.83
2018-05-12T21:20:53.788Z,53.08
2018-05-12T21:23:21.424Z,52.98
2018-05-12T21:25:48.998Z,53.30
2018-05-12T21:28:16.573Z,55.44
2018-05-12T21:30:44.264Z,54.50
2018-05-12T21:33:11.904Z,52.03
2018-05-12T21:35:39.545Z,51.68
2018-05-12T21:38:07.233Z,51.54
2018-05-12T21:40:34.808Z,51.70
2018-05-12T21:43:02.380Z,53.70
2018-05-12T21:45:30.010Z,53.69
2018-05-12T21:47:57.649Z,53.33
2018-05-12T21:50:25.584Z,52.99
2018-05-12T21:52:53.364Z,52.82
2018-05-12T21:55:20.947Z,53.21
2018-05-12T21:57:48.589Z,53.76
2018-05-12T22:00:16.292Z,54.86
2018-05-12T22:02:43.869Z,51.37
2018-05-12T22:05:11.463Z,54.49
2018-05-12T22:07:39.196Z,53.20
2018-05-12T22:10:06.775Z,55.29
2018-05-12T22:12:34.381Z,55.75
2018-05-12T22:15:02.109Z,54.25
2018-05-12T22:17:29.762Z,54.22
2018-05-12T22:19:57.339Z,55.43
2018-05-12T22:22:25.303Z,53.97
2018-05-12T22:24:52.948Z,53.78
2018-05-12T22:27:20.602Z,53.11
2018-05-12T22:29:48.243Z,53.81
2018-05-12T22:32:15.887Z,53.78
2018-05-12T22:34:43.452Z,54.28
2018-05-12T22:37:11.078Z,54.89
2018-05-12T22:39:38.681Z,54.73
2018-05-12T22:42:06.268Z,56.08
2018-05-12T22:44:33.992Z,56.72
2018-05-12T22:47:01.602Z,57.60
2018-05-12T22:49:29.246Z,57.68
2018-05-12T22:51:56.866Z,56.66
2018-05-12T22:54:24.443Z,56.78
2018-05-12T22:56:52.015Z,54.90
2018-05-12T22:59:19.641Z,54.29
2018-05-12T23:01:47.305Z,54.34
2018-05-12T23:04:14.889Z,55.38
2018-05-12T23:06:42.615Z,55.44
2018-05-12T23:09:10.241Z,53.79
2018-05-12T23:11:37.840Z,56.40
2018-05-12T23:14:05.542Z,56.15
2018-05-12T23:16:33.180Z,56.17
2018-05-12T23:19:00.810Z,55.38
2018-05-12T23:21:28.424Z,57.07
2018-05-12T23:23:56.057Z,57.46
2018-05-12T23:26:23.650Z,57.84
2018-05-12T23:28:51.403Z,57.02
2018-05-12T23:31:18.977Z,55.92
2018-05-12T23:33:46.560Z,57.22
2018-05-12T23:36:14.176Z,56.99
2018-05-12T23:38:41.768Z,57.48
2018-05-12T23:41:09.407Z,56.59
2018-05-12T23:43:37.029Z,56.53
2018-05-12T23:46:04.685Z,58.22
2018-05-12T23:48:32.263Z,58.73
2018-05-12T23:51:00.037Z,59.33
2018-05-12T23:53:27.621Z,58.10
2018-05-12T23:55:55.281Z,58.77
2018-05-12T23:58:23.178Z,59.11
